MSC Giovanna — 3FRB9 — position and weather

sailwx.info

Track history (hours):
 
Tides and Currents Weather Stations Pressure Air Temp Water Temp Dewpoint Dewpoint Depression Visibility Wind Speed Wind Dir Waves Ship Positions

MSC Giovanna

Last reported at 2018-Apr-22 23:01 UTC. Time now 2018-Apr-23 02:08 UTC.
Position N 40°30' E 026°59'.

Length 178 m; draft 9.1 m.

Type: Ship (hazmat cat A). MMSI: 357702000.

Date/timePositionNaut miles runAvg speedWind from/ knotsBaromVisibWave heightAir tempDewpointWater temp
2018-Apr-22 23:01N 40°30' E 026°59'015.7
2018-Apr-22 23:00N 40°30' E 026°58'4412.4
2018-Apr-22 19:29N 40°02' E 026°15'15 9.7
2018-Apr-22 17:55N 39°55' E 025°57'614.0
2018-Apr-22 17:31N 39°50' E 025°53'815.1
2018-Apr-22 16:59N 39°43' E 025°51'915.1
2018-Apr-22 16:24N 39°34' E 025°49'12014.6
2018-Apr-22 08:10N 37°34' E 025°52'215.0
2018-Apr-22 08:00N 37°31' E 025°52'50914.2
2018-Apr-20 20:05N 32°56' E 034°37'114.0
2018-Apr-20 20:00N 32°56' E 034°38'714.1
2018-Apr-20 19:30N 32°55' E 034°47'814.2
2018-Apr-20 18:57N 32°53' E 034°56'  
2018-Apr-18 03:31N 32°51' E 035°01'0 8.1
2018-Apr-18 03:30N 32°51' E 035°01'1 2.2
2018-Apr-18 02:54N 32°51' E 034°60'1 0.7
2018-Apr-18 00:58N 32°53' E 034°59'0 0.0
2018-Apr-17 23:30N 32°53' E 034°59'0 0.0
2018-Apr-17 17:58N 32°52' E 034°59'0 0.0
2018-Apr-17 15:08N 32°52' E 034°59'0 0.0
2018-Apr-17 14:45N 32°52' E 034°59'0 0.0
2018-Apr-17 10:25N 32°52' E 034°59'0 0.0
2018-Apr-17 03:14N 32°53' E 034°59'0 0.1
2018-Apr-17 02:55N 32°53' E 034°59'0 0.0
2018-Apr-17 02:17N 32°53' E 034°59'0 0.1
2018-Apr-17 02:00N 32°53' E 034°59'0 0.0
2018-Apr-17 01:25N 32°53' E 034°59'0 0.1
2018-Apr-17 00:11N 32°52' E 034°59'0 1.9
2018-Apr-17 00:00N 32°52' E 034°59'2 4.7
2018-Apr-16 23:30N 32°52' E 034°56'5 9.9
2018-Apr-16 23:00N 32°51' E 034°50'714.5
2018-Apr-16 22:30N 32°44' E 034°48'714.6
2018-Apr-16 22:00N 32°37' E 034°45'714.3
2018-Apr-16 21:30N 32°30' E 034°42'714.1
2018-Apr-16 21:01N 32°23' E 034°39'714.1
2018-Apr-16 20:30N 32°17' E 034°37'714.3
2018-Apr-16 20:00N 32°10' E 034°35'714.7
2018-Apr-16 19:30N 32°03' E 034°32'713.7
2018-Apr-16 19:00N 31°56' E 034°29'510.5
2018-Apr-16 18:30N 31°52' E 034°33'5 9.9
2018-Apr-16 17:59N 31°50' E 034°38'1 0.3
2018-Apr-16 15:45N 31°49' E 034°39'0 0.0
2018-Apr-16 15:30N 31°49' E 034°39'0 0.0
2018-Apr-16 14:49N 31°49' E 034°39'0 0.0
2018-Apr-15 13:05N 31°49' E 034°39'0 0.1
2018-Apr-15 12:59N 31°49' E 034°39'0 0.0
2018-Apr-14 20:44N 31°49' E 034°39'0 0.0
2018-Apr-14 18:15N 31°49' E 034°39'0 0.0
2018-Apr-14 18:00N 31°49' E 034°39'0 0.0
2018-Apr-14 17:30N 31°49' E 034°39'0 0.0
2018-Apr-14 16:38N 31°49' E 034°39'0 0.0
2018-Apr-14 16:29N 31°49' E 034°39'0 0.0
2018-Apr-14 13:28N 31°49' E 034°39'0 0.0
2018-Apr-14 12:41N 31°49' E 034°39'0 0.0
2018-Apr-14 12:29N 31°49' E 034°39'0 0.0
2018-Apr-14 12:00N 31°49' E 034°39'0 0.0
2018-Apr-14 10:51N 31°49' E 034°39'0 0.0
2018-Apr-14 10:26N 31°49' E 034°39'0 0.0
2018-Apr-14 09:13N 31°49' E 034°39'0 0.0
2018-Apr-14 08:56N 31°49' E 034°39'0 0.0
2018-Apr-13 23:06N 31°49' E 034°39'0 0.0
2018-Apr-13 22:26N 31°49' E 034°39'0 0.0
2018-Apr-13 20:37N 31°49' E 034°39'0 0.0
2018-Apr-13 20:20N 31°49' E 034°39'0 0.0
2018-Apr-13 18:48N 31°49' E 034°39'0 0.0
2018-Apr-13 18:26N 31°49' E 034°39'0 0.0
2018-Apr-13 18:00N 31°49' E 034°39'0 0.0
2018-Apr-13 17:30N 31°49' E 034°39'0 0.0
2018-Apr-13 17:00N 31°49' E 034°39'0 0.0
2018-Apr-13 16:26N 31°49' E 034°39'0 0.0
2018-Apr-13 15:54N 31°49' E 034°39'0 0.0
2018-Apr-13 15:28N 31°49' E 034°39'0 0.0
2018-Apr-13 14:59N 31°49' E 034°39'0 0.0
2018-Apr-13 14:29N 31°49' E 034°39'0 0.0
2018-Apr-13 14:00N 31°49' E 034°39'0 0.0
2018-Apr-13 13:29N 31°49' E 034°39'0 0.0
2018-Apr-13 12:56N 31°49' E 034°39'0 0.0
2018-Apr-13 12:24N 31°49' E 034°39'0 0.0
2018-Apr-13 12:00N 31°49' E 034°39'0 0.0
2018-Apr-13 11:30N 31°49' E 034°39'0 0.0
2018-Apr-13 10:57N 31°49' E 034°39'0 0.1
2018-Apr-13 10:30N 31°49' E 034°38'2 3.0
2018-Apr-13 09:59N 31°51' E 034°38'2 3.7
2018-Apr-13 09:30N 31°52' E 034°37'2 4.4
2018-Apr-13 09:00N 31°51' E 034°34'1 1.4
2018-Apr-13 08:26N 31°50' E 034°34'0 0.0
2018-Apr-13 08:00N 31°50' E 034°34'0 0.0
2018-Apr-13 07:30N 31°50' E 034°34'0 0.0
2018-Apr-13 06:53N 31°50' E 034°34'0 0.0
2018-Apr-13 05:29N 31°50' E 034°34'0 0.0
2018-Apr-13 04:21N 31°50' E 034°34'0 0.0
2018-Apr-13 03:49N 31°50' E 034°34'2 2.0
2018-Apr-13 02:57N 31°51' E 034°33'3 6.6
2018-Apr-13 02:30N 31°53' E 034°30'611.7
2018-Apr-13 02:00N 31°55' E 034°23'814.3
2018-Apr-13 01:24N 31°58' E 034°14'614.3
2018-Apr-13 01:00N 32°00' E 034°08'714.2
2018-Apr-13 00:30N 32°03' E 034°00'  
Track history (hours):
 
Tides and Currents Weather Stations Pressure Air Temp Water Temp Dewpoint Dewpoint Depression Visibility Wind Speed Wind Dir Waves Ship Positions

MSC Giovanna

Last reported at 2018-Apr-22 23:01 UTC. Time now 2018-Apr-23 02:08 UTC.
Position N 40°30' E 026°59'.

Length 178 m; draft 9.1 m.

Type: Ship (hazmat cat A). MMSI: 357702000.

Date/timePositionNaut miles runAvg speedWind from/ knotsBaromVisibWave heightAir tempDewpointWater temp
2018-Apr-22 23:01N 40°30' E 026°59'015.7
2018-Apr-22 23:00N 40°30' E 026°58'4412.4
2018-Apr-22 19:29N 40°02' E 026°15'15 9.7
2018-Apr-22 17:55N 39°55' E 025°57'614.0
2018-Apr-22 17:31N 39°50' E 025°53'815.1
2018-Apr-22 16:59N 39°43' E 025°51'915.1
2018-Apr-22 16:24N 39°34' E 025°49'12014.6
2018-Apr-22 08:10N 37°34' E 025°52'215.0
2018-Apr-22 08:00N 37°31' E 025°52'50914.2
2018-Apr-20 20:05N 32°56' E 034°37'114.0
2018-Apr-20 20:00N 32°56' E 034°38'714.1
2018-Apr-20 19:30N 32°55' E 034°47'814.2
2018-Apr-20 18:57N 32°53' E 034°56'  
2018-Apr-18 03:31N 32°51' E 035°01'0 8.1
2018-Apr-18 03:30N 32°51' E 035°01'1 2.2
2018-Apr-18 02:54N 32°51' E 034°60'1 0.7
2018-Apr-18 00:58N 32°53' E 034°59'0 0.0
2018-Apr-17 23:30N 32°53' E 034°59'0 0.0
2018-Apr-17 17:58N 32°52' E 034°59'0 0.0
2018-Apr-17 15:08N 32°52' E 034°59'0 0.0
2018-Apr-17 14:45N 32°52' E 034°59'0 0.0
2018-Apr-17 10:25N 32°52' E 034°59'0 0.0
2018-Apr-17 03:14N 32°53' E 034°59'0 0.1
2018-Apr-17 02:55N 32°53' E 034°59'0 0.0
2018-Apr-17 02:17N 32°53' E 034°59'0 0.1
2018-Apr-17 02:00N 32°53' E 034°59'0 0.0
2018-Apr-17 01:25N 32°53' E 034°59'0 0.1
2018-Apr-17 00:11N 32°52' E 034°59'0 1.9
2018-Apr-17 00:00N 32°52' E 034°59'2 4.7
2018-Apr-16 23:30N 32°52' E 034°56'5 9.9
2018-Apr-16 23:00N 32°51' E 034°50'714.5
2018-Apr-16 22:30N 32°44' E 034°48'714.6
2018-Apr-16 22:00N 32°37' E 034°45'714.3
2018-Apr-16 21:30N 32°30' E 034°42'714.1
2018-Apr-16 21:01N 32°23' E 034°39'714.1
2018-Apr-16 20:30N 32°17' E 034°37'714.3
2018-Apr-16 20:00N 32°10' E 034°35'714.7
2018-Apr-16 19:30N 32°03' E 034°32'713.7
2018-Apr-16 19:00N 31°56' E 034°29'510.5
2018-Apr-16 18:30N 31°52' E 034°33'5 9.9
2018-Apr-16 17:59N 31°50' E 034°38'1 0.3
2018-Apr-16 15:45N 31°49' E 034°39'0 0.0
2018-Apr-16 15:30N 31°49' E 034°39'0 0.0
2018-Apr-16 14:49N 31°49' E 034°39'0 0.0
2018-Apr-15 13:05N 31°49' E 034°39'0 0.1
2018-Apr-15 12:59N 31°49' E 034°39'0 0.0
2018-Apr-14 20:44N 31°49' E 034°39'0 0.0
2018-Apr-14 18:15N 31°49' E 034°39'0 0.0
2018-Apr-14 18:00N 31°49' E 034°39'0 0.0
2018-Apr-14 17:30N 31°49' E 034°39'0 0.0
2018-Apr-14 16:38N 31°49' E 034°39'0 0.0
2018-Apr-14 16:29N 31°49' E 034°39'0 0.0
2018-Apr-14 13:28N 31°49' E 034°39'0 0.0
2018-Apr-14 12:41N 31°49' E 034°39'0 0.0
2018-Apr-14 12:29N 31°49' E 034°39'0 0.0
2018-Apr-14 12:00N 31°49' E 034°39'0 0.0
2018-Apr-14 10:51N 31°49' E 034°39'0 0.0
2018-Apr-14 10:26N 31°49' E 034°39'0 0.0
2018-Apr-14 09:13N 31°49' E 034°39'0 0.0
2018-Apr-14 08:56N 31°49' E 034°39'0 0.0
2018-Apr-13 23:06N 31°49' E 034°39'0 0.0
2018-Apr-13 22:26N 31°49' E 034°39'0 0.0
2018-Apr-13 20:37N 31°49' E 034°39'0 0.0
2018-Apr-13 20:20N 31°49' E 034°39'0 0.0
2018-Apr-13 18:48N 31°49' E 034°39'0 0.0
2018-Apr-13 18:26N 31°49' E 034°39'0 0.0
2018-Apr-13 18:00N 31°49' E 034°39'0 0.0
2018-Apr-13 17:30N 31°49' E 034°39'0 0.0
2018-Apr-13 17:00N 31°49' E 034°39'0 0.0
2018-Apr-13 16:26N 31°49' E 034°39'0 0.0
2018-Apr-13 15:54N 31°49' E 034°39'0 0.0
2018-Apr-13 15:28N 31°49' E 034°39'0 0.0
2018-Apr-13 14:59N 31°49' E 034°39'0 0.0
2018-Apr-13 14:29N 31°49' E 034°39'0 0.0
2018-Apr-13 14:00N 31°49' E 034°39'0 0.0
2018-Apr-13 13:29N 31°49' E 034°39'0 0.0
2018-Apr-13 12:56N 31°49' E 034°39'0 0.0
2018-Apr-13 12:24N 31°49' E 034°39'0 0.0
2018-Apr-13 12:00N 31°49' E 034°39'0 0.0
2018-Apr-13 11:30N 31°49' E 034°39'0 0.0
2018-Apr-13 10:57N 31°49' E 034°39'0 0.1
2018-Apr-13 10:30N 31°49' E 034°38'2 3.0
2018-Apr-13 09:59N 31°51' E 034°38'2 3.7
2018-Apr-13 09:30N 31°52' E 034°37'2 4.4
2018-Apr-13 09:00N 31°51' E 034°34'1 1.4
2018-Apr-13 08:26N 31°50' E 034°34'0 0.0
2018-Apr-13 08:00N 31°50' E 034°34'0 0.0
2018-Apr-13 07:30N 31°50' E 034°34'0 0.0
2018-Apr-13 06:53N 31°50' E 034°34'0 0.0
2018-Apr-13 05:29N 31°50' E 034°34'0 0.0
2018-Apr-13 04:21N 31°50' E 034°34'0 0.0
2018-Apr-13 03:49N 31°50' E 034°34'2 2.0
2018-Apr-13 02:57N 31°51' E 034°33'3 6.6
2018-Apr-13 02:30N 31°53' E 034°30'611.7
2018-Apr-13 02:00N 31°55' E 034°23'814.3
2018-Apr-13 01:24N 31°58' E 034°14'614.3
2018-Apr-13 01:00N 32°00' E 034°08'714.2
2018-Apr-13 00:30N 32°03' E 034°00'  

Dump ship's entire track history